createdAt,value
2023-05-05T00:01:48.972Z,99.90
2023-05-05T00:04:17.847Z,99.90
2023-05-05T00:06:44.760Z,99.90
2023-05-05T00:09:11.561Z,99.90
2023-05-05T00:11:38.553Z,99.90
2023-05-05T00:14:05.676Z,99.90
2023-05-05T00:16:32.668Z,99.90
2023-05-05T00:19:00.311Z,99.90
2023-05-05T00:21:28.093Z,99.90
2023-05-05T00:23:54.891Z,99.90
2023-05-05T00:26:22.015Z,99.90
2023-05-05T00:28:49.158Z,99.90
2023-05-05T00:31:16.873Z,99.90
2023-05-05T00:33:43.706Z,99.90
2023-05-05T00:36:10.704Z,99.90
2023-05-05T00:38:38.148Z,99.90
2023-05-05T00:41:05.280Z,99.90
2023-05-05T00:43:32.526Z,99.90
2023-05-05T00:46:05.945Z,99.90
2023-05-05T00:48:33.297Z,99.90
2023-05-05T00:51:00.218Z,99.90
2023-05-05T00:53:28.311Z,99.90
2023-05-05T00:55:55.125Z,99.90
2023-05-05T00:58:22.169Z,99.90
2023-05-05T01:00:49.273Z,99.90
2023-05-05T01:03:16.292Z,99.90
2023-05-05T01:05:56.129Z,99.90
2023-05-05T01:08:57.025Z,99.90
2023-05-05T01:11:27.181Z,99.90
2023-05-05T01:14:11.960Z,99.90
2023-05-05T01:16:43.834Z,99.90
2023-05-05T01:19:29.399Z,99.90
2023-05-05T01:22:02.368Z,99.90
2023-05-05T01:24:31.899Z,99.90
2023-05-05T01:27:26.057Z,99.90
2023-05-05T01:30:17.643Z,99.90
2023-05-05T01:32:55.512Z,99.90
2023-05-05T01:35:37.735Z,99.90
2023-05-05T01:38:04.497Z,99.90
2023-05-05T01:40:35.874Z,99.90
2023-05-05T01:43:03.776Z,99.90
2023-05-05T01:45:33.634Z,99.90
2023-05-05T01:48:02.122Z,99.90
2023-05-05T01:50:29.366Z,99.90
2023-05-05T01:52:57.752Z,99.90
2023-05-05T01:55:28.035Z,99.90
2023-05-05T01:57:56.931Z,99.90
2023-05-05T02:00:25.290Z,99.90
2023-05-05T02:02:54.794Z,99.90
2023-05-05T02:05:23.771Z,99.90
2023-05-05T02:07:57.033Z,99.90
2023-05-05T02:10:24.237Z,99.90
2023-05-05T02:12:52.296Z,99.90
2023-05-05T02:15:21.344Z,99.90
2023-05-05T02:17:52.259Z,99.90
2023-05-05T02:20:20.448Z,99.90
2023-05-05T02:22:47.457Z,99.90
2023-05-05T02:25:14.571Z,99.90
2023-05-05T02:27:43.940Z,99.90
2023-05-05T02:30:15.929Z,99.90
2023-05-05T02:32:55.238Z,99.90
2023-05-05T02:35:26.972Z,99.90
2023-05-05T02:38:02.576Z,99.90
2023-05-05T02:40:34.636Z,99.90
2023-05-05T02:43:04.700Z,99.90
2023-05-05T02:45:31.573Z,99.90
2023-05-05T02:48:03.225Z,99.90
2023-05-05T02:50:31.561Z,99.90
2023-05-05T02:52:59.539Z,99.90
2023-05-05T02:55:50.288Z,99.90
2023-05-05T02:58:34.661Z,99.90
2023-05-05T03:01:25.769Z,99.90
2023-05-05T03:04:15.548Z,99.90
2023-05-05T03:06:45.565Z,99.90
2023-05-05T03:09:21.292Z,99.90
2023-05-05T03:11:54.784Z,99.90
2023-05-05T03:14:22.646Z,99.90
2023-05-05T03:16:50.429Z,99.90
2023-05-05T03:19:19.195Z,99.90
2023-05-05T03:21:46.275Z,99.90
2023-05-05T03:24:20.347Z,99.90
2023-05-05T03:26:48.544Z,99.90
2023-05-05T03:29:16.017Z,99.90
2023-05-05T03:31:43.241Z,99.90
2023-05-05T03:34:10.180Z,99.90
2023-05-05T03:36:37.085Z,99.90
2023-05-05T03:39:04.149Z,99.90
2023-05-05T03:41:30.999Z,99.90
2023-05-05T03:43:57.769Z,99.90
2023-05-05T03:46:24.624Z,99.90
2023-05-05T03:48:51.803Z,99.90
2023-05-05T03:51:18.618Z,99.90
2023-05-05T03:53:45.608Z,99.90
2023-05-05T03:56:12.432Z,99.90
2023-05-05T03:58:39.209Z,99.90
2023-05-05T04:01:06.015Z,99.90
2023-05-05T04:03:32.949Z,99.90
2023-05-05T04:06:00.027Z,99.90
2023-05-05T04:08:26.916Z,99.90
2023-05-05T04:10:53.709Z,99.90
2023-05-05T04:13:20.508Z,99.90
2023-05-05T04:15:47.321Z,99.90
2023-05-05T04:18:14.159Z,99.90
2023-05-05T04:20:41.117Z,99.90
2023-05-05T04:23:08.097Z,99.90
2023-05-05T04:25:35.037Z,99.90
2023-05-05T04:28:01.859Z,99.90
2023-05-05T04:30:28.750Z,99.90
2023-05-05T04:32:55.587Z,99.90
2023-05-05T04:35:22.518Z,99.90
2023-05-05T04:37:49.453Z,99.90
2023-05-05T04:40:16.251Z,99.90
2023-05-05T04:42:43.044Z,99.90
2023-05-05T04:45:10.317Z,99.90
2023-05-05T04:47:40.716Z,99.90
2023-05-05T04:50:08.488Z,99.90
2023-05-05T04:52:35.828Z,99.90
2023-05-05T04:55:02.746Z,99.90
2023-05-05T04:57:30.742Z,99.90
2023-05-05T04:59:59.538Z,99.90
2023-05-05T05:02:27.136Z,99.90
2023-05-05T05:04:53.989Z,99.90
2023-05-05T05:07:20.843Z,99.90
2023-05-05T05:09:47.599Z,99.90
2023-05-05T05:12:14.363Z,99.90
2023-05-05T05:14:41.182Z,99.90
2023-05-05T05:17:07.987Z,99.90
2023-05-05T05:19:34.775Z,99.90
2023-05-05T05:22:01.543Z,99.90
2023-05-05T05:24:28.422Z,99.90
2023-05-05T05:26:55.352Z,99.90
2023-05-05T05:29:22.251Z,99.90
2023-05-05T05:31:50.152Z,99.90
2023-05-05T05:34:16.990Z,99.90
2023-05-05T05:36:43.749Z,99.90
2023-05-05T05:39:10.533Z,99.90
2023-05-05T05:41:37.279Z,99.90
2023-05-05T05:44:04.138Z,99.90
2023-05-05T05:46:30.993Z,99.90
2023-05-05T05:48:57.851Z,99.90
2023-05-05T05:51:24.629Z,99.90
2023-05-05T05:53:51.920Z,99.90
2023-05-05T05:56:18.753Z,99.90
2023-05-05T05:58:45.690Z,99.90
2023-05-05T06:01:12.579Z,99.90
2023-05-05T06:03:39.486Z,99.90
2023-05-05T06:06:07.580Z,99.90
2023-05-05T06:08:34.432Z,99.90
2023-05-05T06:11:01.263Z,99.90
2023-05-05T06:13:28.053Z,99.90
2023-05-05T06:15:54.881Z,99.90
2023-05-05T06:18:21.678Z,99.90
2023-05-05T06:20:52.351Z,99.90
2023-05-05T06:23:19.377Z,99.90
2023-05-05T06:25:46.223Z,99.90
2023-05-05T06:28:13.094Z,99.90
2023-05-05T06:30:39.871Z,98.50
2023-05-05T06:33:06.706Z,96.60
2023-05-05T06:35:34.724Z,95.90
2023-05-05T06:38:01.551Z,95.30
2023-05-05T06:40:29.419Z,95.50
2023-05-05T06:42:56.323Z,93.30
2023-05-05T06:45:23.210Z,93.80
2023-05-05T06:47:50.069Z,93.00
2023-05-05T06:50:17.054Z,92.90
2023-05-05T06:52:43.814Z,92.60
2023-05-05T06:55:10.690Z,92.30
2023-05-05T06:57:37.470Z,93.30
2023-05-05T07:00:06.076Z,93.30
2023-05-05T07:02:33.776Z,91.20
2023-05-05T07:05:00.807Z,92.10
2023-05-05T07:07:27.632Z,92.30
2023-05-05T07:09:54.412Z,94.10
2023-05-05T07:12:21.266Z,91.20
2023-05-05T07:14:48.051Z,90.90
2023-05-05T07:17:14.836Z,91.70
2023-05-05T07:19:41.837Z,90.80
2023-05-05T07:22:08.602Z,91.50
2023-05-05T07:24:35.347Z,92.00
2023-05-05T07:27:02.709Z,91.40
2023-05-05T07:29:29.522Z,91.20
2023-05-05T07:31:56.362Z,88.80
2023-05-05T07:34:23.288Z,88.90
2023-05-05T07:36:50.287Z,89.60
2023-05-05T07:39:19.368Z,90.20
2023-05-05T07:41:46.254Z,86.70
2023-05-05T07:44:13.115Z,86.70
2023-05-05T07:46:39.890Z,85.50
2023-05-05T07:49:06.787Z,82.70
2023-05-05T07:51:34.849Z,84.50
2023-05-05T07:54:01.868Z,88.00
2023-05-05T07:56:28.789Z,84.30
2023-05-05T07:58:55.794Z,81.10
2023-05-05T08:01:22.830Z,82.50
2023-05-05T08:03:49.697Z,80.90
2023-05-05T08:06:17.984Z,82.30
2023-05-05T08:08:44.798Z,82.20
2023-05-05T08:11:11.590Z,82.80
2023-05-05T08:13:39.266Z,81.30
2023-05-05T08:16:06.525Z,80.00
2023-05-05T08:18:34.494Z,77.00
2023-05-05T08:21:01.301Z,81.00
2023-05-05T08:23:28.063Z,81.50
2023-05-05T08:25:54.819Z,80.20
2023-05-05T08:28:23.043Z,81.90
2023-05-05T08:30:50.875Z,81.50
2023-05-05T08:33:18.032Z,76.50
2023-05-05T08:35:45.014Z,85.60
2023-05-05T08:38:12.659Z,77.40
2023-05-05T08:40:40.731Z,78.50
2023-05-05T08:43:07.743Z,77.00
2023-05-05T08:45:34.590Z,80.70
2023-05-05T08:48:05.813Z,75.60
2023-05-05T08:50:33.088Z,81.50
2023-05-05T08:53:11.972Z,77.00
2023-05-05T08:55:52.467Z,79.30
2023-05-05T08:58:19.798Z,78.00
2023-05-05T09:00:46.829Z,80.70
2023-05-05T09:03:14.562Z,76.50
2023-05-05T09:05:43.228Z,75.00
2023-05-05T09:08:11.315Z,76.80
2023-05-05T09:10:42.025Z,76.30
2023-05-05T09:13:09.110Z,79.10
2023-05-05T09:15:35.928Z,80.90
2023-05-05T09:18:03.690Z,75.80
2023-05-05T09:20:35.489Z,73.60
2023-05-05T09:23:12.504Z,72.60
2023-05-05T09:25:40.358Z,74.80
2023-05-05T09:28:12.154Z,70.70
2023-05-05T09:30:40.540Z,70.70
2023-05-05T09:33:08.051Z,71.50
2023-05-05T09:35:52.350Z,71.30
2023-05-05T09:38:20.242Z,73.80
2023-05-05T09:40:52.056Z,74.00
2023-05-05T09:43:21.497Z,73.80
2023-05-05T09:45:49.260Z,71.10
2023-05-05T09:48:27.518Z,69.80
2023-05-05T09:50:55.802Z,72.80
2023-05-05T09:53:24.060Z,70.50
2023-05-05T09:55:58.266Z,71.20
2023-05-05T09:58:30.725Z,67.00
2023-05-05T10:00:59.042Z,69.50
2023-05-05T10:03:26.342Z,70.80
2023-05-05T10:05:57.893Z,70.60
2023-05-05T10:08:30.922Z,70.50
2023-05-05T10:11:06.439Z,68.70
2023-05-05T10:13:42.117Z,70.90
2023-05-05T10:16:11.567Z,67.40
2023-05-05T10:18:42.923Z,67.50
2023-05-05T10:21:12.491Z,66.90
2023-05-05T10:23:49.453Z,62.80
2023-05-05T10:26:19.655Z,68.90
2023-05-05T10:28:52.145Z,67.10
2023-05-05T10:31:29.973Z,64.30
2023-05-05T10:34:10.449Z,65.00
2023-05-05T10:36:38.958Z,68.30
2023-05-05T10:39:10.794Z,66.50
2023-05-05T10:41:38.275Z,66.00
2023-05-05T10:44:06.034Z,60.70
2023-05-05T10:46:32.987Z,64.70
2023-05-05T10:49:07.005Z,67.30
2023-05-05T10:51:56.914Z,63.20
2023-05-05T10:54:32.718Z,63.40
2023-05-05T10:57:04.938Z,61.50
2023-05-05T10:59:37.949Z,63.50
2023-05-05T11:02:26.712Z,61.40
2023-05-05T11:05:14.489Z,61.60
2023-05-05T11:07:43.111Z,61.20
2023-05-05T11:10:12.122Z,63.00
2023-05-05T11:13:03.147Z,60.50
2023-05-05T11:15:30.416Z,63.00
2023-05-05T11:18:07.423Z,61.10
2023-05-05T11:20:39.788Z,64.90
2023-05-05T11:23:06.904Z,60.50
2023-05-05T11:25:41.063Z,60.40
2023-05-05T11:28:09.985Z,60.40
2023-05-05T11:30:57.473Z,59.70
2023-05-05T11:33:38.733Z,60.90
2023-05-05T11:36:07.644Z,60.90
2023-05-05T11:39:06.501Z,62.20
2023-05-05T11:41:36.143Z,60.00
2023-05-05T11:44:16.961Z,59.40
2023-05-05T11:46:53.151Z,59.20
2023-05-05T11:49:36.402Z,60.40
2023-05-05T11:52:12.543Z,58.90
2023-05-05T11:54:48.940Z,57.80
2023-05-05T11:57:17.819Z,59.40
2023-05-05T12:00:05.902Z,60.20
2023-05-05T12:02:33.088Z,59.70
2023-05-05T12:05:01.187Z,60.00
2023-05-05T12:07:30.896Z,60.60
2023-05-05T12:09:58.305Z,59.90
2023-05-05T12:12:36.088Z,59.90
2023-05-05T12:15:03.898Z,58.60
2023-05-05T12:17:43.082Z,60.40
2023-05-05T12:20:11.408Z,60.90
2023-05-05T12:22:39.219Z,59.10
2023-05-05T12:25:08.029Z,57.80
2023-05-05T12:27:38.669Z,59.40
2023-05-05T12:30:22.373Z,59.00
2023-05-05T12:32:49.188Z,61.00
2023-05-05T12:35:17.048Z,58.50
2023-05-05T12:37:53.273Z,60.00
2023-05-05T12:40:47.655Z,59.20
2023-05-05T12:43:32.176Z,60.80
2023-05-05T12:46:03.444Z,59.50
2023-05-05T12:48:30.767Z,59.10
2023-05-05T12:51:23.113Z,58.10
2023-05-05T12:54:07.305Z,60.90
2023-05-05T12:56:47.742Z,59.70
2023-05-05T12:59:23.785Z,59.90
2023-05-05T13:01:52.574Z,60.00
2023-05-05T13:04:21.048Z,61.90
2023-05-05T13:06:49.064Z,57.60
2023-05-05T13:09:30.724Z,58.90
2023-05-05T13:11:57.931Z,59.90
2023-05-05T13:14:24.865Z,57.80
2023-05-05T13:16:52.890Z,57.80
2023-05-05T13:19:19.727Z,54.40
2023-05-05T13:21:46.530Z,55.80
2023-05-05T13:24:26.173Z,56.50
2023-05-05T13:26:58.250Z,57.10
2023-05-05T13:29:29.554Z,57.60
2023-05-05T13:31:58.392Z,56.10
2023-05-05T13:34:25.434Z,59.00
2023-05-05T13:36:52.341Z,56.10
2023-05-05T13:39:19.257Z,58.50
2023-05-05T13:41:46.236Z,56.40
2023-05-05T13:44:14.058Z,56.10
2023-05-05T13:46:42.716Z,57.60
2023-05-05T13:49:09.668Z,54.90
2023-05-05T13:51:38.103Z,56.30
2023-05-05T13:54:05.577Z,53.80
2023-05-05T13:56:32.834Z,54.30
2023-05-05T13:58:59.749Z,56.50
2023-05-05T14:01:26.907Z,59.10
2023-05-05T14:03:55.596Z,57.20
2023-05-05T14:06:24.048Z,58.50
2023-05-05T14:08:51.657Z,57.60
2023-05-05T14:11:20.710Z,57.20
2023-05-05T14:13:48.037Z,56.20
2023-05-05T14:16:15.334Z,56.60
2023-05-05T14:18:42.501Z,56.20
2023-05-05T14:21:09.631Z,55.70
2023-05-05T14:23:36.467Z,55.40
2023-05-05T14:26:03.538Z,57.70
2023-05-05T14:28:30.758Z,58.90
2023-05-05T14:30:57.681Z,58.50
2023-05-05T14:33:24.609Z,55.80
2023-05-05T14:35:51.585Z,58.00
2023-05-05T14:38:18.506Z,58.50
2023-05-05T14:40:45.441Z,60.20
2023-05-05T14:43:12.320Z,57.70
2023-05-05T14:45:39.177Z,58.00
2023-05-05T14:48:06.085Z,57.70
2023-05-05T14:50:32.927Z,56.80
2023-05-05T14:52:59.712Z,59.40
2023-05-05T14:55:26.605Z,56.70
2023-05-05T14:57:53.365Z,56.40
2023-05-05T15:00:20.179Z,54.90
2023-05-05T15:02:48.325Z,55.30
2023-05-05T15:05:15.627Z,56.50
2023-05-05T15:07:42.633Z,56.70
2023-05-05T15:10:09.943Z,57.80
2023-05-05T15:12:36.877Z,58.00
2023-05-05T15:15:03.995Z,57.20
2023-05-05T15:17:31.844Z,57.30
2023-05-05T15:19:58.776Z,58.20
2023-05-05T15:22:26.058Z,56.90
2023-05-05T15:24:53.242Z,58.30
2023-05-05T15:27:20.167Z,58.70
2023-05-05T15:29:47.025Z,58.70
2023-05-05T15:32:14.004Z,58.00
2023-05-05T15:34:40.986Z,58.90
2023-05-05T15:37:07.790Z,58.80
2023-05-05T15:39:34.631Z,59.20
2023-05-05T15:42:04.923Z,60.70
2023-05-05T15:44:32.184Z,61.50
2023-05-05T15:46:59.097Z,62.90
2023-05-05T15:49:25.881Z,58.70
2023-05-05T15:51:52.680Z,59.10
2023-05-05T15:54:19.583Z,60.70
2023-05-05T15:56:46.380Z,60.20
2023-05-05T15:59:13.165Z,59.40
2023-05-05T16:01:40.035Z,60.70
2023-05-05T16:04:06.893Z,60.20
2023-05-05T16:06:33.749Z,62.70
2023-05-05T16:09:00.642Z,61.10
2023-05-05T16:11:27.506Z,59.60
2023-05-05T16:13:54.337Z,61.30
2023-05-05T16:16:21.765Z,59.30
2023-05-05T16:18:48.729Z,59.90
2023-05-05T16:21:15.820Z,60.80
2023-05-05T16:23:42.672Z,62.50
2023-05-05T16:26:09.521Z,62.30
2023-05-05T16:28:37.591Z,61.10
2023-05-05T16:31:04.747Z,61.00
2023-05-05T16:33:31.654Z,60.60
2023-05-05T16:35:58.556Z,61.20
2023-05-05T16:38:25.563Z,62.60
2023-05-05T16:40:52.357Z,61.00
2023-05-05T16:43:19.701Z,61.70
2023-05-05T16:45:46.781Z,64.10
2023-05-05T16:48:14.671Z,65.40
2023-05-05T16:50:41.615Z,64.50
2023-05-05T16:53:09.217Z,64.00
2023-05-05T16:55:36.819Z,64.60
2023-05-05T16:58:04.453Z,64.80
2023-05-05T17:00:31.245Z,65.70
2023-05-05T17:02:58.164Z,66.10
2023-05-05T17:05:25.079Z,66.00
2023-05-05T17:07:52.317Z,67.00
2023-05-05T17:10:19.149Z,65.90
2023-05-05T17:12:46.060Z,66.50
2023-05-05T17:15:12.947Z,66.90
2023-05-05T17:17:41.556Z,67.20
2023-05-05T17:20:10.221Z,66.90
2023-05-05T17:22:37.496Z,66.70
2023-05-05T17:25:05.271Z,68.30
2023-05-05T17:27:32.072Z,67.40
2023-05-05T17:29:58.941Z,68.60
2023-05-05T17:32:25.886Z,68.20
2023-05-05T17:34:52.716Z,69.40
2023-05-05T17:37:19.512Z,70.10
2023-05-05T17:39:46.275Z,69.60
2023-05-05T17:42:13.094Z,69.00
2023-05-05T17:44:39.903Z,69.50
2023-05-05T17:47:07.811Z,69.40
2023-05-05T17:49:34.861Z,72.00
2023-05-05T17:52:01.823Z,73.70
2023-05-05T17:54:28.713Z,73.10
2023-05-05T17:56:55.530Z,75.60
2023-05-05T17:59:22.303Z,76.70
2023-05-05T18:01:49.218Z,78.40
2023-05-05T18:04:16.220Z,80.20
2023-05-05T18:06:43.175Z,79.80
2023-05-05T18:09:36.988Z,81.30
2023-05-05T18:12:03.959Z,81.70
2023-05-05T18:14:30.796Z,81.80
2023-05-05T18:16:57.548Z,85.50
2023-05-05T18:19:24.385Z,86.30
2023-05-05T18:21:52.839Z,86.90
2023-05-05T18:24:20.588Z,88.00
2023-05-05T18:26:50.272Z,87.30
2023-05-05T18:29:18.323Z,88.70
2023-05-05T18:31:48.385Z,88.40
2023-05-05T18:34:16.918Z,89.70
2023-05-05T18:36:43.838Z,90.10
2023-05-05T18:39:10.616Z,90.90
2023-05-05T18:41:37.605Z,91.30
2023-05-05T18:44:04.347Z,91.60
2023-05-05T18:46:31.268Z,91.90
2023-05-05T18:48:58.079Z,92.60
2023-05-05T18:51:24.940Z,92.50
2023-05-05T18:53:51.775Z,93.70
2023-05-05T18:56:18.530Z,92.80
2023-05-05T18:58:45.330Z,92.50
2023-05-05T19:01:12.147Z,92.90
2023-05-05T19:03:38.942Z,92.80
2023-05-05T19:06:06.691Z,93.30
2023-05-05T19:08:33.503Z,93.10
2023-05-05T19:11:00.372Z,94.40
2023-05-05T19:13:27.181Z,94.40
2023-05-05T19:15:57.106Z,94.00
2023-05-05T19:18:24.594Z,93.90
2023-05-05T19:20:51.383Z,94.40
2023-05-05T19:23:18.223Z,95.30
2023-05-05T19:25:45.082Z,95.70
2023-05-05T19:28:12.092Z,96.20
2023-05-05T19:30:38.926Z,96.50
2023-05-05T19:33:05.887Z,96.50
2023-05-05T19:35:32.700Z,96.20
2023-05-05T19:38:00.119Z,96.10
2023-05-05T19:40:26.992Z,96.30
2023-05-05T19:42:53.756Z,96.00
2023-05-05T19:45:21.126Z,96.20
2023-05-05T19:47:48.174Z,96.10
2023-05-05T19:50:17.767Z,96.10
2023-05-05T19:52:44.632Z,96.80
2023-05-05T19:55:13.005Z,97.30
2023-05-05T19:57:40.672Z,97.10
2023-05-05T20:00:10.547Z,96.90
2023-05-05T20:02:37.750Z,97.20
2023-05-05T20:05:05.007Z,97.10
2023-05-05T20:07:31.907Z,97.00
2023-05-05T20:09:58.812Z,96.90
2023-05-05T20:12:25.771Z,96.80
2023-05-05T20:14:52.724Z,97.60
2023-05-05T20:17:21.477Z,97.80
2023-05-05T20:19:48.322Z,97.40
2023-05-05T20:22:15.188Z,97.10
2023-05-05T20:24:41.970Z,98.10
2023-05-05T20:27:09.041Z,98.10
2023-05-05T20:29:36.221Z,98.40
2023-05-05T20:32:03.093Z,98.80
2023-05-05T20:34:30.014Z,99.50
2023-05-05T20:36:58.069Z,99.80
2023-05-05T20:39:25.111Z,99.90
2023-05-05T20:41:51.938Z,99.80
2023-05-05T20:44:18.727Z,99.50
2023-05-05T20:46:45.602Z,99.90
2023-05-05T20:49:12.354Z,99.10
2023-05-05T20:51:39.249Z,99.90
2023-05-05T20:54:06.094Z,99.90
2023-05-05T20:56:32.866Z,99.90
2023-05-05T20:58:59.754Z,99.90
2023-05-05T21:01:27.025Z,99.90
2023-05-05T21:03:53.837Z,99.90
2023-05-05T21:06:20.626Z,99.90
2023-05-05T21:08:47.843Z,99.90
2023-05-05T21:11:14.603Z,99.90
2023-05-05T21:13:41.399Z,99.90
2023-05-05T21:16:08.878Z,99.90
2023-05-05T21:18:35.705Z,99.90
2023-05-05T21:21:02.516Z,99.90
2023-05-05T21:23:30.402Z,99.90
2023-05-05T21:25:57.224Z,99.90
2023-05-05T21:28:24.040Z,99.90
2023-05-05T21:31:10.303Z,99.90
2023-05-05T21:33:38.254Z,99.90
2023-05-05T21:36:06.133Z,99.90
2023-05-05T21:38:32.990Z,99.90
2023-05-05T21:40:59.859Z,99.90
2023-05-05T21:43:28.793Z,99.90
2023-05-05T21:46:00.008Z,99.90
2023-05-05T21:48:27.026Z,99.90
2023-05-05T21:50:54.553Z,99.90
2023-05-05T21:53:21.518Z,99.90
2023-05-05T21:55:48.340Z,99.90
2023-05-05T21:58:15.352Z,99.90
2023-05-05T22:00:42.758Z,99.90
2023-05-05T22:03:09.842Z,99.90
2023-05-05T22:05:36.703Z,99.90
2023-05-05T22:08:03.659Z,99.90
2023-05-05T22:10:30.509Z,99.90
2023-05-05T22:12:58.138Z,99.90
2023-05-05T22:15:29.975Z,99.90
2023-05-05T22:17:59.746Z,99.90
2023-05-05T22:20:26.700Z,99.90
2023-05-05T22:22:53.528Z,99.90
2023-05-05T22:25:20.482Z,99.90
2023-05-05T22:27:47.291Z,99.90
2023-05-05T22:30:14.383Z,99.90
2023-05-05T22:32:43.445Z,99.90
2023-05-05T22:35:10.566Z,99.90
2023-05-05T22:37:37.676Z,99.90
2023-05-05T22:40:05.064Z,99.90
2023-05-05T22:42:31.879Z,99.90
2023-05-05T22:44:58.651Z,99.90
2023-05-05T22:47:25.627Z,99.90
2023-05-05T22:49:52.447Z,99.90
2023-05-05T22:52:19.349Z,99.90
2023-05-05T22:54:46.324Z,99.90
2023-05-05T22:57:13.211Z,99.90
2023-05-05T22:59:39.959Z,99.90
2023-05-05T23:02:06.792Z,99.90
2023-05-05T23:04:33.693Z,99.90
2023-05-05T23:07:00.779Z,99.90
2023-05-05T23:09:27.558Z,99.90
2023-05-05T23:11:54.648Z,99.90
2023-05-05T23:14:21.658Z,99.90
2023-05-05T23:16:48.537Z,99.90
2023-05-05T23:19:15.528Z,99.90
2023-05-05T23:21:52.707Z,99.90
2023-05-05T23:24:20.820Z,99.90
2023-05-05T23:26:47.589Z,99.90
2023-05-05T23:29:14.374Z,99.90
2023-05-05T23:31:41.597Z,99.90
2023-05-05T23:34:08.705Z,99.90
2023-05-05T23:36:35.516Z,99.90
2023-05-05T23:39:02.349Z,99.90
2023-05-05T23:41:29.204Z,99.90
2023-05-05T23:43:56.772Z,99.90
2023-05-05T23:46:24.170Z,99.90
2023-05-05T23:48:51.250Z,99.90
2023-05-05T23:51:18.328Z,99.90
2023-05-05T23:53:45.084Z,99.90
2023-05-05T23:56:12.468Z,99.90
2023-05-05T23:58:39.280Z,99.90
